createdAt,value
2018-09-06T00:00:07.056Z,17.60
2018-09-06T00:02:35.831Z,17.60
2018-09-06T00:05:04.625Z,17.57
2018-09-06T00:07:33.415Z,17.58
2018-09-06T00:10:02.232Z,17.56
2018-09-06T00:12:31.025Z,17.59
2018-09-06T00:14:59.812Z,17.57
2018-09-06T00:17:28.643Z,17.53
2018-09-06T00:19:57.455Z,17.49
2018-09-06T00:22:26.349Z,17.47
2018-09-06T00:24:55.227Z,17.46
2018-09-06T00:27:24.092Z,17.45
2018-09-06T00:29:52.908Z,17.43
2018-09-06T00:32:21.726Z,17.45
2018-09-06T00:34:50.573Z,17.44
2018-09-06T00:37:19.334Z,17.47
2018-09-06T00:39:48.196Z,17.47
2018-09-06T00:42:16.973Z,17.47
2018-09-06T00:44:45.896Z,17.47
2018-09-06T00:47:14.700Z,17.45
2018-09-06T00:49:43.824Z,17.42
2018-09-06T00:52:12.660Z,17.41
2018-09-06T00:54:41.515Z,17.45
2018-09-06T00:57:10.337Z,17.51
2018-09-06T00:59:39.151Z,17.59
2018-09-06T01:02:08.167Z,17.64
2018-09-06T01:04:37.013Z,17.67
2018-09-06T01:07:05.802Z,17.70
2018-09-06T01:09:34.663Z,17.65
2018-09-06T01:12:03.468Z,17.66
2018-09-06T01:14:32.231Z,17.63
2018-09-06T01:17:01.018Z,17.59
2018-09-06T01:19:29.792Z,17.54
2018-09-06T01:21:58.928Z,17.51
2018-09-06T01:24:27.696Z,17.43
2018-09-06T01:26:56.454Z,17.44
2018-09-06T01:29:25.210Z,17.40
2018-09-06T01:31:53.985Z,17.35
2018-09-06T01:34:22.825Z,17.38
2018-09-06T01:36:51.640Z,17.35
2018-09-06T01:39:20.444Z,17.38
2018-09-06T01:41:49.283Z,17.31
2018-09-06T01:44:18.087Z,17.31
2018-09-06T01:46:46.870Z,17.28
2018-09-06T01:49:15.657Z,17.28
2018-09-06T01:51:44.534Z,17.29
2018-09-06T01:54:13.360Z,17.27
2018-09-06T01:56:42.125Z,17.28
2018-09-06T01:59:14.050Z,17.24
2018-09-06T02:01:43.305Z,17.27
2018-09-06T02:04:12.320Z,17.22
2018-09-06T02:06:41.086Z,17.20
2018-09-06T02:09:10.348Z,17.16
2018-09-06T02:11:40.562Z,17.19
2018-09-06T02:14:09.620Z,17.14
2018-09-06T02:16:38.393Z,17.11
2018-09-06T02:19:07.539Z,17.19
2018-09-06T02:21:36.392Z,17.22
2018-09-06T02:24:05.612Z,17.29
2018-09-06T02:26:34.400Z,17.28
2018-09-06T02:29:03.194Z,17.30
2018-09-06T02:31:31.996Z,17.38
2018-09-06T02:34:00.886Z,17.46
2018-09-06T02:36:29.680Z,17.43
2018-09-06T02:38:58.559Z,17.47
2018-09-06T02:41:27.350Z,17.54
2018-09-06T02:43:56.125Z,17.56
2018-09-06T02:46:24.912Z,17.60
2018-09-06T02:48:53.691Z,17.65
2018-09-06T02:51:22.518Z,17.70
2018-09-06T02:53:51.309Z,17.71
2018-09-06T02:56:20.261Z,17.71
2018-09-06T02:58:49.044Z,17.71
2018-09-06T03:01:17.885Z,17.69
2018-09-06T03:03:46.658Z,17.72
2018-09-06T03:06:15.473Z,17.71
2018-09-06T03:08:44.658Z,17.65
2018-09-06T03:11:15.943Z,17.60
2018-09-06T03:13:44.888Z,17.64
2018-09-06T03:16:13.758Z,17.68
2018-09-06T03:18:42.670Z,17.61
2018-09-06T03:21:11.438Z,17.55
2018-09-06T03:23:40.349Z,17.59
2018-09-06T03:26:14.265Z,17.61
2018-09-06T03:28:43.194Z,17.62
2018-09-06T03:31:12.003Z,17.65
2018-09-06T03:33:40.795Z,17.69
2018-09-06T03:36:09.627Z,17.67
2018-09-06T03:38:38.758Z,17.62
2018-09-06T03:41:07.654Z,17.63
2018-09-06T03:43:36.459Z,17.59
2018-09-06T03:46:06.799Z,17.58
2018-09-06T03:48:35.609Z,17.54
2018-09-06T03:51:05.112Z,17.48
2018-09-06T03:53:34.017Z,17.44
2018-09-06T03:56:02.903Z,17.43
2018-09-06T03:58:31.767Z,17.46
2018-09-06T04:01:00.631Z,17.44
2018-09-06T04:03:29.486Z,17.46
2018-09-06T04:05:58.263Z,17.45
2018-09-06T04:08:27.051Z,17.39
2018-09-06T04:10:55.868Z,17.35
2018-09-06T04:13:24.711Z,17.33
2018-09-06T04:15:53.523Z,17.32
2018-09-06T04:18:22.365Z,17.37
2018-09-06T04:20:51.153Z,17.50
2018-09-06T04:23:20.028Z,17.54
2018-09-06T04:25:48.893Z,17.59
2018-09-06T04:28:17.794Z,17.84
2018-09-06T04:30:46.651Z,17.97
2018-09-06T04:33:15.455Z,17.99
2018-09-06T04:35:44.328Z,18.06
2018-09-06T04:38:13.227Z,18.00
2018-09-06T04:40:42.054Z,17.99
2018-09-06T04:43:10.966Z,18.02
2018-09-06T04:45:39.771Z,18.06
2018-09-06T04:48:08.531Z,18.08
2018-09-06T04:50:37.343Z,18.23
2018-09-06T04:53:06.137Z,18.16
2018-09-06T04:55:34.919Z,17.96
2018-09-06T04:58:03.774Z,18.06
2018-09-06T05:00:32.601Z,18.12
2018-09-06T05:03:01.423Z,18.17
2018-09-06T05:05:30.255Z,18.25
2018-09-06T05:07:59.018Z,18.37
2018-09-06T05:10:27.886Z,18.40
2018-09-06T05:12:56.699Z,18.21
2018-09-06T05:15:25.574Z,18.15
2018-09-06T05:17:54.388Z,18.19
2018-09-06T05:20:23.253Z,18.32
2018-09-06T05:22:52.068Z,18.45
2018-09-06T05:25:21.034Z,18.56
2018-09-06T05:27:49.876Z,18.49
2018-09-06T05:30:18.796Z,18.52
2018-09-06T05:32:47.591Z,18.60
2018-09-06T05:35:16.438Z,18.56
2018-09-06T05:37:45.387Z,18.62
2018-09-06T05:40:14.558Z,18.66
2018-09-06T05:42:46.380Z,18.68
2018-09-06T05:45:15.167Z,18.69
2018-09-06T05:47:43.973Z,18.69
2018-09-06T05:50:12.775Z,18.66
2018-09-06T05:52:41.589Z,18.69
2018-09-06T05:55:10.370Z,18.72
2018-09-06T05:57:39.176Z,18.76
2018-09-06T06:00:13.279Z,18.79
2018-09-06T06:02:42.172Z,18.76
2018-09-06T06:05:11.378Z,18.83
2018-09-06T06:07:51.375Z,18.94
2018-09-06T06:10:20.220Z,19.18
2018-09-06T06:12:49.156Z,19.38
2018-09-06T06:15:18.008Z,19.64
2018-09-06T06:17:46.868Z,19.76
2018-09-06T06:20:15.697Z,19.85
2018-09-06T06:22:44.507Z,19.88
2018-09-06T06:25:13.319Z,19.93
2018-09-06T06:27:42.129Z,20.06
2018-09-06T06:30:10.969Z,20.19
2018-09-06T06:32:39.917Z,19.98
2018-09-06T06:35:08.777Z,19.80
2018-09-06T06:37:37.559Z,19.52
2018-09-06T06:40:06.396Z,19.39
2018-09-06T06:42:35.548Z,19.45
2018-09-06T06:45:04.379Z,19.47
2018-09-06T06:47:33.304Z,19.51
2018-09-06T06:50:02.111Z,19.71
2018-09-06T06:52:30.955Z,19.65
2018-09-06T06:54:59.713Z,19.54
2018-09-06T06:57:28.490Z,19.69
2018-09-06T06:59:57.246Z,19.73
2018-09-06T07:02:26.111Z,19.80
2018-09-06T07:04:55.387Z,19.83
2018-09-06T07:07:24.201Z,19.84
2018-09-06T07:09:53.074Z,19.95
2018-09-06T07:12:21.918Z,19.82
2018-09-06T07:14:50.792Z,19.80
2018-09-06T07:17:19.592Z,19.87
2018-09-06T07:19:48.460Z,19.82
2018-09-06T07:22:17.272Z,19.75
2018-09-06T07:24:46.064Z,19.83
2018-09-06T07:27:14.913Z,19.87
2018-09-06T07:29:43.742Z,19.98
2018-09-06T07:32:12.574Z,20.03
2018-09-06T07:34:41.448Z,20.19
2018-09-06T07:37:10.254Z,20.43
2018-09-06T07:39:39.101Z,20.43
2018-09-06T07:42:07.902Z,20.29
2018-09-06T07:44:36.738Z,20.28
2018-09-06T07:47:05.620Z,20.30
2018-09-06T07:49:34.521Z,20.33
2018-09-06T07:52:03.717Z,20.48
2018-09-06T07:54:32.498Z,20.57
2018-09-06T07:57:01.377Z,20.37
2018-09-06T07:59:30.135Z,20.43
2018-09-06T08:01:58.920Z,20.49
2018-09-06T08:04:27.751Z,20.48
2018-09-06T08:06:56.554Z,20.41
2018-09-06T08:09:25.629Z,20.45
2018-09-06T08:11:54.825Z,20.61
2018-09-06T08:14:23.783Z,20.84
2018-09-06T08:16:52.625Z,20.89
2018-09-06T08:19:21.504Z,20.79
2018-09-06T08:21:50.291Z,20.70
2018-09-06T08:24:22.884Z,20.67
2018-09-06T08:26:51.940Z,20.80
2018-09-06T08:29:20.764Z,20.86
2018-09-06T08:31:49.708Z,21.02
2018-09-06T08:34:18.497Z,21.32
2018-09-06T08:36:47.349Z,21.49
2018-09-06T08:39:16.166Z,21.68
2018-09-06T08:41:44.950Z,21.77
2018-09-06T08:44:13.783Z,21.78
2018-09-06T08:46:42.682Z,21.74
2018-09-06T08:49:11.469Z,21.75
2018-09-06T08:51:40.195Z,21.92
2018-09-06T08:54:10.438Z,21.92
2018-09-06T08:56:39.271Z,21.93
2018-09-06T08:59:08.129Z,22.06
2018-09-06T09:01:40.593Z,22.08
2018-09-06T09:04:09.832Z,22.03
2018-09-06T09:06:39.215Z,21.89
2018-09-06T09:09:14.807Z,21.81
2018-09-06T09:11:43.936Z,21.82
2018-09-06T09:14:12.768Z,21.98
2018-09-06T09:16:41.885Z,22.20
2018-09-06T09:19:10.669Z,22.39
2018-09-06T09:21:39.535Z,22.33
2018-09-06T09:24:08.936Z,22.31
2018-09-06T09:26:37.830Z,22.36
2018-09-06T09:29:06.636Z,22.26
2018-09-06T09:31:35.558Z,22.25
2018-09-06T09:34:04.595Z,22.26
2018-09-06T09:36:33.426Z,22.30
2018-09-06T09:39:02.259Z,22.53
2018-09-06T09:41:31.014Z,22.80
2018-09-06T09:43:59.928Z,22.98
2018-09-06T09:51:24.517Z,22.94
2018-09-06T09:53:53.365Z,22.92
2018-09-06T09:56:22.345Z,22.78
2018-09-06T09:58:51.119Z,22.75
2018-09-06T10:01:20.181Z,22.92
2018-09-06T10:03:54.202Z,23.13
2018-09-06T10:06:28.504Z,23.22
2018-09-06T10:09:02.786Z,23.16
2018-09-06T10:11:31.981Z,23.35
2018-09-06T10:14:01.126Z,23.48
2018-09-06T10:16:30.600Z,23.39
2018-09-06T10:18:59.742Z,23.44
2018-09-06T10:21:28.559Z,23.45
2018-09-06T10:23:57.476Z,23.61
2018-09-06T10:26:26.252Z,23.62
2018-09-06T10:28:55.453Z,23.65
2018-09-06T10:31:24.317Z,23.38
2018-09-06T10:33:53.151Z,23.52
2018-09-06T10:36:22.437Z,23.64
2018-09-06T10:38:51.327Z,23.82
2018-09-06T10:41:20.119Z,23.98
2018-09-06T10:43:48.922Z,24.34
2018-09-06T10:46:18.007Z,24.58
2018-09-06T10:48:46.831Z,24.51
2018-09-06T10:51:15.747Z,24.46
2018-09-06T10:53:44.643Z,24.31
2018-09-06T10:56:13.718Z,24.32
2018-09-06T10:58:42.965Z,24.40
2018-09-06T11:01:16.958Z,24.48
2018-09-06T11:03:45.772Z,24.61
2018-09-06T11:06:14.716Z,24.35
2018-09-06T11:08:43.558Z,24.18
2018-09-06T11:11:12.384Z,24.32
2018-09-06T11:13:41.300Z,24.58
2018-09-06T11:16:10.909Z,24.75
2018-09-06T11:18:39.957Z,25.00
2018-09-06T11:21:08.765Z,24.90
2018-09-06T11:23:38.079Z,25.13
2018-09-06T11:26:07.247Z,25.01
2018-09-06T11:28:36.119Z,24.98
2018-09-06T11:31:05.239Z,25.12
2018-09-06T11:33:34.070Z,25.42
2018-09-06T11:36:02.891Z,25.39
2018-09-06T11:38:31.686Z,25.26
2018-09-06T11:41:00.453Z,24.91
2018-09-06T11:43:29.278Z,24.78
2018-09-06T11:45:58.084Z,24.63
2018-09-06T11:48:26.924Z,24.51
2018-09-06T11:50:55.782Z,24.30
2018-09-06T11:53:24.598Z,24.24
2018-09-06T11:55:53.409Z,24.19
2018-09-06T11:58:22.203Z,24.18
2018-09-06T12:00:51.457Z,24.10
2018-09-06T12:03:20.236Z,24.01
2018-09-06T12:05:49.025Z,23.92
2018-09-06T12:08:17.847Z,23.87
2018-09-06T12:10:46.675Z,23.86
2018-09-06T12:13:15.581Z,23.89
2018-09-06T12:15:44.577Z,23.93
2018-09-06T12:18:13.416Z,23.95
2018-09-06T12:20:42.609Z,23.98
2018-09-06T12:23:11.446Z,23.99
2018-09-06T12:25:40.263Z,24.00
2018-09-06T12:28:09.331Z,24.12
2018-09-06T12:30:38.311Z,24.23
2018-09-06T12:33:07.151Z,24.29
2018-09-06T12:35:36.349Z,24.28
2018-09-06T12:38:05.551Z,24.28
2018-09-06T12:40:34.360Z,24.31
2018-09-06T12:43:03.717Z,24.27
2018-09-06T12:45:32.867Z,24.24
2018-09-06T12:48:01.792Z,24.21
2018-09-06T12:50:30.587Z,24.19
2018-09-06T12:52:59.406Z,24.26
2018-09-06T12:55:28.181Z,24.31
2018-09-06T12:57:57.118Z,24.41
2018-09-06T13:00:26.206Z,24.09
2018-09-06T13:02:54.982Z,23.79
2018-09-06T13:05:24.081Z,23.64
2018-09-06T13:07:52.893Z,23.51
2018-09-06T13:10:21.679Z,23.39
2018-09-06T13:12:50.554Z,23.26
2018-09-06T13:15:19.305Z,23.22
2018-09-06T13:17:48.130Z,23.01
2018-09-06T13:20:16.889Z,22.98
2018-09-06T13:22:45.653Z,22.94
2018-09-06T13:25:14.523Z,22.90
2018-09-06T13:27:43.313Z,22.88
2018-09-06T13:30:12.182Z,22.71
2018-09-06T13:32:40.951Z,22.64
2018-09-06T13:35:09.770Z,22.59
2018-09-06T13:37:38.534Z,22.71
2018-09-06T13:40:07.479Z,22.81
2018-09-06T13:42:36.298Z,22.96
2018-09-06T13:45:05.642Z,23.16
2018-09-06T13:47:34.418Z,23.37
2018-09-06T13:50:03.270Z,23.64
2018-09-06T13:52:32.076Z,24.01
2018-09-06T13:55:00.874Z,24.26
2018-09-06T13:57:29.694Z,24.59
2018-09-06T13:59:58.622Z,24.90
2018-09-06T14:02:27.555Z,25.07
2018-09-06T14:04:56.416Z,25.12
2018-09-06T14:07:25.258Z,24.96
2018-09-06T14:09:54.202Z,24.65
2018-09-06T14:12:22.978Z,24.62
2018-09-06T14:14:51.769Z,24.58
2018-09-06T14:17:20.550Z,24.50
2018-09-06T14:19:49.339Z,24.61
2018-09-06T14:22:18.443Z,24.56
2018-09-06T14:24:47.304Z,24.42
2018-09-06T14:27:16.048Z,24.35
2018-09-06T14:29:44.827Z,24.35
2018-09-06T14:32:13.629Z,24.44
2018-09-06T14:34:42.650Z,24.68
2018-09-06T14:37:11.429Z,24.82
2018-09-06T14:39:40.321Z,24.78
2018-09-06T14:42:09.157Z,24.71
2018-09-06T14:44:38.010Z,24.77
2018-09-06T14:47:06.844Z,24.78
2018-09-06T14:49:35.699Z,24.89
2018-09-06T14:52:04.537Z,24.99
2018-09-06T14:54:33.486Z,24.90
2018-09-06T14:57:02.211Z,24.84
2018-09-06T14:59:31.343Z,24.79
2018-09-06T15:02:00.173Z,24.75
2018-09-06T15:04:29.000Z,24.77
2018-09-06T15:06:57.771Z,24.85
2018-09-06T15:09:26.602Z,24.90
2018-09-06T15:11:55.403Z,24.88
2018-09-06T15:14:24.263Z,24.82
2018-09-06T15:16:53.049Z,24.70
2018-09-06T15:19:21.914Z,24.61
2018-09-06T15:21:50.895Z,24.58
2018-09-06T15:24:19.634Z,24.50
2018-09-06T15:26:48.394Z,24.47
2018-09-06T15:29:17.150Z,24.45
2018-09-06T15:31:45.953Z,24.43
2018-09-06T15:34:14.741Z,24.36
2018-09-06T15:36:43.940Z,24.31
2018-09-06T15:39:12.730Z,24.30
2018-09-06T15:41:41.657Z,24.30
2018-09-06T15:44:10.480Z,24.24
2018-09-06T15:46:39.313Z,24.19
2018-09-06T15:49:08.366Z,24.17
2018-09-06T15:51:37.197Z,24.15
2018-09-06T15:54:06.086Z,24.15
2018-09-06T15:56:34.981Z,24.14
2018-09-06T15:59:03.833Z,24.07
2018-09-06T16:01:32.689Z,24.01
2018-09-06T16:04:01.527Z,23.94
2018-09-06T16:06:30.325Z,23.91
2018-09-06T16:08:59.092Z,23.85
2018-09-06T16:11:27.910Z,23.79
2018-09-06T16:13:56.803Z,23.73
2018-09-06T16:16:25.567Z,23.65
2018-09-06T16:18:54.385Z,23.63
2018-09-06T16:21:23.187Z,23.57
2018-09-06T16:23:51.983Z,23.51
2018-09-06T16:26:20.791Z,23.43
2018-09-06T16:28:49.637Z,23.35
2018-09-06T16:31:18.476Z,23.24
2018-09-06T16:33:47.559Z,23.16
2018-09-06T16:36:16.386Z,23.07
2018-09-06T16:38:45.290Z,23.02
2018-09-06T16:41:14.083Z,22.89
2018-09-06T16:43:42.885Z,22.81
2018-09-06T16:46:11.775Z,22.75
2018-09-06T16:48:40.695Z,22.69
2018-09-06T16:51:09.493Z,22.63
2018-09-06T16:53:38.354Z,22.55
2018-09-06T16:56:07.292Z,22.46
2018-09-06T16:58:36.128Z,22.40
2018-09-06T17:01:05.048Z,22.33
2018-09-06T17:03:33.986Z,22.29
2018-09-06T17:06:02.827Z,22.22
2018-09-06T17:08:31.585Z,22.20
2018-09-06T17:11:00.388Z,22.11
2018-09-06T17:13:29.193Z,22.08
2018-09-06T17:15:58.086Z,22.02
2018-09-06T17:18:26.950Z,21.93
2018-09-06T17:20:56.109Z,21.84
2018-09-06T17:23:24.913Z,21.78
2018-09-06T17:25:53.710Z,21.74
2018-09-06T17:28:22.541Z,21.73
2018-09-06T17:30:51.354Z,21.69
2018-09-06T17:33:20.215Z,21.63
2018-09-06T17:35:49.063Z,21.62
2018-09-06T17:38:17.925Z,21.60
2018-09-06T17:40:46.715Z,21.57
2018-09-06T17:43:15.474Z,21.51
2018-09-06T17:45:44.321Z,21.53
2018-09-06T17:48:13.168Z,21.44
2018-09-06T17:50:42.038Z,21.49
2018-09-06T17:53:10.939Z,21.44
2018-09-06T17:55:39.743Z,21.36
2018-09-06T17:58:08.557Z,21.31
2018-09-06T18:00:44.911Z,21.27
2018-09-06T18:03:14.324Z,21.35
2018-09-06T18:05:43.068Z,21.31
2018-09-06T18:08:12.442Z,21.29
2018-09-06T18:10:41.344Z,21.25
2018-09-06T18:13:10.283Z,21.22
2018-09-06T18:15:39.138Z,21.17
2018-09-06T18:18:08.070Z,21.17
2018-09-06T18:20:36.954Z,21.09
2018-09-06T18:23:05.910Z,21.11
2018-09-06T18:25:34.777Z,21.05
2018-09-06T18:28:03.654Z,21.00
2018-09-06T18:30:32.535Z,21.01
2018-09-06T18:33:01.837Z,20.97
2018-09-06T18:35:30.639Z,20.96
2018-09-06T18:37:59.480Z,20.98
2018-09-06T18:40:28.613Z,20.99
2018-09-06T18:42:57.537Z,20.94
2018-09-06T18:45:26.377Z,20.92
2018-09-06T18:47:56.040Z,20.90
2018-09-06T18:50:24.882Z,20.85
2018-09-06T18:52:53.747Z,20.87
2018-09-06T18:55:22.586Z,20.85
2018-09-06T18:57:51.475Z,20.77
2018-09-06T19:00:20.299Z,20.81
2018-09-06T19:02:49.065Z,20.81
2018-09-06T19:05:17.847Z,20.77
2018-09-06T19:07:46.694Z,20.75
2018-09-06T19:10:15.618Z,20.71
2018-09-06T19:12:44.371Z,20.68
2018-09-06T19:15:13.188Z,20.64
2018-09-06T19:17:42.033Z,20.57
2018-09-06T19:20:10.920Z,20.54
2018-09-06T19:22:39.697Z,20.50
2018-09-06T19:25:08.586Z,20.47
2018-09-06T19:27:37.389Z,20.49
2018-09-06T19:30:06.914Z,20.45
2018-09-06T19:32:35.749Z,20.41
2018-09-06T19:35:05.006Z,20.41
2018-09-06T19:37:33.876Z,20.44
2018-09-06T19:40:02.745Z,20.44
2018-09-06T19:42:31.555Z,20.42
2018-09-06T19:45:00.422Z,20.42
2018-09-06T19:47:29.342Z,20.40
2018-09-06T19:49:58.127Z,20.40
2018-09-06T19:52:26.920Z,20.36
2018-09-06T19:54:55.709Z,20.40
2018-09-06T19:57:24.558Z,20.35
2018-09-06T19:59:53.460Z,20.39
2018-09-06T20:02:22.260Z,20.38
2018-09-06T20:04:51.041Z,20.37
2018-09-06T20:07:19.794Z,20.41
2018-09-06T20:09:48.574Z,20.43
2018-09-06T20:12:17.444Z,20.38
2018-09-06T20:14:46.384Z,20.41
2018-09-06T20:17:15.177Z,20.35
2018-09-06T20:19:44.004Z,20.35
2018-09-06T20:22:12.778Z,20.32
2018-09-06T20:24:41.557Z,20.27
2018-09-06T20:27:10.385Z,20.24
2018-09-06T20:29:39.557Z,20.16
2018-09-06T20:32:08.366Z,20.09
2018-09-06T20:34:37.172Z,20.04
2018-09-06T20:37:06.019Z,20.02
2018-09-06T20:39:35.146Z,19.99
2018-09-06T20:42:03.966Z,19.96
2018-09-06T20:44:33.021Z,19.93
2018-09-06T20:47:01.858Z,19.93
2018-09-06T20:49:30.700Z,19.95
2018-09-06T20:51:59.525Z,19.90
2018-09-06T20:54:28.371Z,19.91
2018-09-06T20:56:57.142Z,19.89
2018-09-06T20:59:25.906Z,19.86
2018-09-06T21:01:54.956Z,19.87
2018-09-06T21:04:23.835Z,19.87
2018-09-06T21:06:52.612Z,19.88
2018-09-06T21:09:21.503Z,19.86
2018-09-06T21:11:50.261Z,19.87
2018-09-06T21:14:19.113Z,19.85
2018-09-06T21:16:48.404Z,19.82
2018-09-06T21:19:17.213Z,19.80
2018-09-06T21:21:46.010Z,19.79
2018-09-06T21:24:14.867Z,19.65
2018-09-06T21:26:43.687Z,19.67
2018-09-06T21:29:12.484Z,19.65
2018-09-06T21:31:41.746Z,19.68
2018-09-06T21:34:10.511Z,19.67
2018-09-06T21:36:39.301Z,19.65
2018-09-06T21:39:10.474Z,19.60
2018-09-06T21:41:39.359Z,19.57
2018-09-06T21:44:09.077Z,19.55
2018-09-06T21:46:37.913Z,19.50
2018-09-06T21:49:07.181Z,19.41
2018-09-06T21:51:35.995Z,19.38
2018-09-06T21:54:04.848Z,19.33
2018-09-06T21:56:33.743Z,19.32
2018-09-06T21:59:02.568Z,19.31
2018-09-06T22:01:31.426Z,19.34
2018-09-06T22:04:05.429Z,19.28
2018-09-06T22:06:34.527Z,19.26
2018-09-06T22:09:05.044Z,19.30
2018-09-06T22:11:33.873Z,19.28
2018-09-06T22:14:02.648Z,19.28
2018-09-06T22:16:31.607Z,19.30
2018-09-06T22:19:00.375Z,19.30
2018-09-06T22:21:29.146Z,19.26
2018-09-06T22:23:58.255Z,19.21
2018-09-06T22:26:27.156Z,19.18
2018-09-06T22:28:56.024Z,19.15
2018-09-06T22:31:24.903Z,19.16
2018-09-06T22:33:53.730Z,19.14
2018-09-06T22:36:22.512Z,19.16
2018-09-06T22:38:51.349Z,19.17
2018-09-06T22:41:20.189Z,19.17
2018-09-06T22:43:48.987Z,19.15
2018-09-06T22:46:17.800Z,19.18
2018-09-06T22:48:46.557Z,19.17
2018-09-06T22:51:15.506Z,19.18
2018-09-06T22:53:44.322Z,19.21
2018-09-06T22:56:13.123Z,19.22
2018-09-06T22:58:41.956Z,19.22
2018-09-06T23:01:10.948Z,19.22
2018-09-06T23:03:41.457Z,19.17
2018-09-06T23:06:10.614Z,19.14
2018-09-06T23:08:41.277Z,19.12
2018-09-06T23:11:10.090Z,19.08
2018-09-06T23:13:38.878Z,19.07
2018-09-06T23:16:07.714Z,19.05
2018-09-06T23:21:10.278Z,18.93
2018-09-06T23:23:39.881Z,18.82
2018-09-06T23:26:08.830Z,18.71
2018-09-06T23:28:37.647Z,18.63
2018-09-06T23:31:07.486Z,18.58
2018-09-06T23:33:36.396Z,18.52
2018-09-06T23:36:05.265Z,18.41
2018-09-06T23:38:34.467Z,18.35
2018-09-06T23:41:04.137Z,18.32
2018-09-06T23:43:32.926Z,18.31
2018-09-06T23:46:01.786Z,18.28
2018-09-06T23:48:31.855Z,18.25
2018-09-06T23:51:01.543Z,18.20
2018-09-06T23:53:30.335Z,18.17
2018-09-06T23:55:59.190Z,18.11
2018-09-06T23:58:27.986Z,18.08
